Tiempo atmosférico en la estación meteorológica de Eivissa Aeropuerto, Illes Balears (6 m.)



Fecha
DESCASC
Temp. máxima en grados centígrados (hora)
DESCASC
Temp. mínima en grados centígrados (hora)
DESCASC
Temp. media en grados centígrados
DESCASC
Racha de viento máxima en m/sg (hora)
DESCASC
Velocidad máxima media en intervalos de 10 minutos(hora)
DESCASC
Precipitaciones diarias en mm
DESCASC
Precipitaciones de 00:00 a 06:00 en mm
DESCASC
Precipitaciones de 06:00 a 12:00 en mm
DESCASC
Precipitaciones de 12:00 a 18:00 en mm
DESCASC
Precipitaciones de 18:00 a 24:00 en mm
DESCASC

Gráficas

Temp. máximas Temp. mínimas Temp. medias Precipitaciones Rachas de viento máximas Velocidades máximas media en intervalos de 10 minutos

Datos horarios

Fecha y hora oficial Temperatura (ºC) Velocidad del viento (km/h) Dirección del viento Racha (km/h) Dirección de racha Precipitación (mm) Presión (hPa) Tendencia (hPa) Humedad (%)
2019-04-17 23:00:00 15.4 33 Nordeste 46 Este 0 1013.1 -0.5 82
2019-04-17 22:00:00 15.5 24 Este 39 Este 0 1013.4 -0.4 81
2019-04-17 21:00:00 15.8 22 Este 33 Este 0 1013.4 -0.4 78
2019-04-17 20:00:00 16 20 Este 32 Este 0 1013.6 -0.6 76
2019-04-17 19:00:00 16.4 20 Este 32 Nordeste 0 1013.8 -1.1 72
2019-04-17 18:00:00 17.1 21 Este 33 Este 0 1013.8 -1.1 70
2019-04-17 17:00:00 17.6 24 Este 33 Este 0 1014.2 -1.4 68
2019-04-17 16:00:00 17.8 23 Este 37 Este 0 1014.9 -1.9 67
2019-04-17 15:00:00 18.3 29 Este 39 Este 0 1014.9 -2.3 62
2019-04-17 14:00:00 18.4 26 Este 37 Este 0 1015.6 -1.6 62
2019-04-17 13:00:00 17.8 20 Nordeste 28 Nordeste 0 1016.8 -0.3 66
2019-04-17 12:00:00 17.2 21 Este 30 Este 0 1017.2 0.5 67
2019-04-17 11:00:00 17.1 19 Este 26 Este 0 1017.2 0.6 66
2019-04-17 10:00:00 16.4 15 Este 24 Este 0 1017.1 0.8 69
2019-04-17 09:00:00 14.8 10 Nordeste 15 Nordeste 0 1016.7 0.2 77
2019-04-17 08:00:00 11.9 8 Norte 13 Nordeste 0 1016.6 -0.2 87
2019-04-17 07:00:00 11.2 8 Norte 11 Norte 0 1016.3 -0.8 88
2019-04-17 06:00:00 12.6 3 Norte 11 Norte 0 1016.5 -0.8 85
2019-04-17 05:00:00 12.3 9 Norte 13 Norte 0 1016.8 -1.1 86
2019-04-17 04:00:00 12.8 9 Norte 13 Norte 0 1017.1 -1.1 86
2019-04-17 03:00:00 11.5 8 Norte 11 Norte 0 1017.3 -0.9 89
2019-04-17 02:00:00 10.9 6 Norte 11 Norte 0 1017.9 -0.1 89
2019-04-17 01:00:00 11.4 4 Norte 11 Norte 0 1018.2 0.6 84
2019-04-17 00:00:00 11.9 8 Norte 21 Nordeste 0 1018.2 1.1 81
2019-04-16 23:00:00 -- 9 Nordeste 13 Nordeste 0 1018 0.7 --
2019-04-16 22:00:00 13.8 11 Nordeste 17 Nordeste 0 1017.6 0.4 79
2019-04-16 21:00:00 15.1 7 Este 22 Nordeste 0 1017.1 0.1 78
2019-04-16 20:00:00 16.1 11 Este 18 Norte 0 1017.3 0.3 73
2019-04-16 19:00:00 16.8 11 Este 17 Norte 0 1017.2 -0.5 72
2019-04-16 18:00:00 17.5 12 Este 18 Este 0 1017 -0.7 67
2019-04-16 17:00:00 17.6 14 Este 21 Este 0 1017 -0.6 67
2019-04-16 16:00:00 18 11 Este 18 Este 0 1017.7 -0.1 66
2019-04-16 15:00:00 17.7 12 Este 22 Norte 0 1017.7 -0.3 68
2019-04-16 14:00:00 17.8 13 Este 21 Este 0 1017.6 0.4 68
2019-04-16 13:00:00 16.7 12 Este 17 Este 0 1017.8 1 73
2019-04-16 12:00:00 16.2 9 Este 17 Este 0 1018 2 77
2019-04-16 11:00:00 16.5 12 Este 17 Este 0 1017.2 1.6 77
2019-04-16 10:00:00 16.2 6 Este 11 Este 0 1016.8 2.3 77
2019-04-16 09:00:00 14.9 2 Nordeste 11 Norte 0 1016 2 80
2019-04-16 08:00:00 13 3 Norte 9 Noroeste 0 1015.6 1.7 82
2019-04-16 07:00:00 12 4 Norte 13 Norte 0 1014.5 0.7 84
2019-04-16 06:00:00 11.8 5 Norte -- -- 0 1014 -0.1 85
2019-04-16 05:00:00 12.1 2 Noroeste 15 Noroeste 0 1013.9 -0.5 84
2019-04-16 04:00:00 12.7 9 Norte 11 Norte 0 1013.8 -0.2 82
2019-04-16 03:00:00 13.3 8 Noroeste 11 Noroeste 0 1014.1 0.1 80
2019-04-16 02:00:00 13.7 8 Norte 11 Norte 0 1014.4 0.4 79
2019-04-16 01:00:00 13.9 8 Nordeste 13 Este 0 1014 0.3 80
2019-04-16 00:00:00 13.8 8 Este 13 Este 0 1014 0.7 80
2019-04-15 23:00:00 15.1 9 Este 18 Este 0 1014 0.9 75
2019-04-15 22:00:00 15.6 14 Este 22 Norte 0 1013.7 0.6 73
2019-04-15 21:00:00 15.9 14 Este 26 Norte 0 1013.3 0.4 70
2019-04-15 20:00:00 16.2 15 Este 26 Este 0 1013.1 -0.3 69
2019-04-15 19:00:00 17.7 17 Este 28 Este 0 1013.1 -0.6 60
2019-04-15 18:00:00 17.9 17 Este 28 Este 0 1012.9 -0.8 61
2019-04-15 17:00:00 18.4 17 Este 28 Este 0 1013.4 -0.9 61
2019-04-15 16:00:00 18.8 20 Este 32 Sudeste 0 1013.7 -0.8 58
2019-04-15 15:00:00 19.8 20 Este 32 Este 0 1013.7 -1.2 55
2019-04-15 14:00:00 18.7 20 Este 28 Nordeste 0 1014.3 -0.3 64
2019-04-15 13:00:00 18.1 20 Este 30 Norte 0 1014.5 0.1 71
2019-04-15 12:00:00 17.4 16 Este 28 Este 0 1014.9 0.8 79
2019-04-15 11:00:00 17.6 19 Este 30 Este 0 1014.6 0.8 78
2019-04-15 10:00:00 17.2 23 Este 32 Este 0 1014.4 1.1 80
2019-04-15 09:00:00 16.2 19 Este 30 Nordeste 0 1014.1 1 88
2019-04-15 08:00:00 15.5 18 Nordeste 28 Nordeste 0 1013.8 0.6 90
2019-04-15 07:00:00 14.3 11 Nordeste 18 Norte 0 1013.3 0.3 89
2019-04-15 06:00:00 14.7 13 Norte 17 Norte 0 1013.1 0.5 87
2019-04-15 05:00:00 14.2 12 Norte 15 Norte 0 1013.2 0.1 83
2019-04-15 04:00:00 13.8 11 Nordeste 21 Nordeste 0 1013 -0.3 84
2019-04-15 03:00:00 13.8 13 Sudoeste 15 Sudoeste 0 1012.6 -0.7 81
2019-04-15 02:00:00 15.1 12 Sudoeste 13 Sudoeste 0 1013.1 -0.3 79
2019-04-15 01:00:00 15.7 8 Sudoeste 18 Sudoeste 0 1013.3 0.1 73
2019-04-15 00:00:00 16.1 15 Sudoeste 21 Sudoeste 0 1013.3 0.7 73
2019-04-14 23:00:00 16 12 Sudoeste 22 Sudoeste 0 1013.4 1 77
2019-04-14 22:00:00 16.4 12 Sudoeste 21 Sudoeste 0 1013.2 0.7 71
2019-04-14 21:00:00 16.4 12 Sudoeste 22 Sudoeste 0 1012.6 0.1 80
2019-04-14 20:00:00 17.6 11 Sudoeste 28 Sudoeste 0 1012.4 -0.3 74
2019-04-14 19:00:00 18.7 19 Sudoeste 26 Sudoeste 0 1012.5 -0.4 69
2019-04-14 18:00:00 18.8 20 Sudoeste 32 Sudoeste 0 1012.5 -0.6 71
2019-04-14 17:00:00 19.3 26 Sudoeste 35 Sudoeste 0 1012.7 -0.4 67
2019-04-14 16:00:00 19.5 22 Sudoeste 35 Sudoeste 0 1012.9 -0.4 66
2019-04-14 15:00:00 21.5 27 Sudoeste 41 Sudoeste 0 1013.1 -0.6 42
2019-04-14 14:00:00 19.9 24 Sudoeste 37 Sudoeste 0 1013.1 -0.4 64
2019-04-14 13:00:00 19.5 26 Sur 35 Sur 0 1013.3 -0.2 62
2019-04-14 12:00:00 19.4 21 Sudoeste 30 Sur 0 1013.7 0.5 60
2019-04-14 11:00:00 17.9 24 Sudoeste 33 Sudoeste 0 1013.5 0.3 69
2019-04-14 10:00:00 16.8 24 Sudoeste 33 Sudoeste 0 1013.5 0.6 78
2019-04-14 09:00:00 15.6 17 Sudoeste 28 Sudoeste 0 1013.2 -0.1 85
2019-04-14 08:00:00 13.7 13 Sudoeste 21 Sudoeste 0 1013.2 -0.7 89
2019-04-14 07:00:00 13.8 14 Sudoeste 21 Sudoeste 0 1012.9 -1.4 90
2019-04-14 06:00:00 13.6 15 Sudoeste 24 Sudoeste 0 1013.3 -1.3 90
2019-04-14 05:00:00 12.3 15 Sudoeste 18 Sudoeste 0 1013.9 -1.3 89
2019-04-14 04:00:00 13.3 15 Oeste 18 Oeste 0 1014.3 -1.7 87
2019-04-14 03:00:00 12.4 9 Oeste 11 Oeste 0 1014.6 -1.9 84
2019-04-14 02:00:00 12.2 8 Oeste 11 Oeste 0 1015.2 -1.2 89
2019-04-14 01:00:00 13.3 9 Oeste 17 Sudoeste 0 1016 -0.1 90
2019-04-14 00:00:00 14.4 11 Sudoeste 18 Sudoeste 0 1016.5 0.9 88
2019-04-13 23:00:00 14.6 11 Sudoeste 15 Sudoeste 0 1016.4 0.9 87
2019-04-13 22:00:00 13.7 6 Sudoeste 15 Sudoeste 0 1016.1 0.8 87
2019-04-13 21:00:00 14.2 13 Sudoeste 15 Sudoeste 0 1015.6 0.3 84
2019-04-13 20:00:00 16.1 13 Sudoeste 22 Sudoeste 0 1015.5 0.3 76
2019-04-13 19:00:00 17.1 14 Sudoeste 30 Sudoeste 0 1015.3 -0.1 71
2019-04-13 18:00:00 17.6 19 Sudoeste 26 Sudoeste 0 1015.3 -0.6 71
2019-04-13 17:00:00 17.9 14 Sudoeste 22 Oeste 0 1015.2 -1 69
2019-04-13 16:00:00 18 14 Sudoeste 24 Sudoeste 0 1015.4 -1.2 68
2019-04-13 15:00:00 18.3 15 Sudoeste 26 Sur 0 1015.9 -0.8 66
2019-04-13 14:00:00 18 18 Sudoeste 28 Sudoeste 0 1016.2 -0.5 69
2019-04-13 13:00:00 17.9 18 Sudoeste 24 Sur 0 1016.6 0.4 67
2019-04-13 12:00:00 17.5 15 Sur 22 Sudoeste 0 1016.7 0.6 68
2019-04-13 11:00:00 17 15 Sur 22 Sur 0 1016.7 1.1 69
2019-04-13 10:00:00 16.1 13 Sudoeste 17 Sudoeste 0 1016.2 1.1 72
2019-04-13 09:00:00 13.5 3 Sudeste 8 Noroeste 0 1016.1 1.4 82
2019-04-13 08:00:00 9.7 5 Norte 9 Norte 0 1015.6 0.8 88
2019-04-13 07:00:00 8.5 5 Nordeste 11 Norte 0 1015.1 0.1 89
2019-04-13 06:00:00 8 5 Norte 11 Norte 0 1014.7 -0.6 87
2019-04-13 05:00:00 8.4 5 Norte 8 Norte 0 1014.8 -0.9 88
2019-04-13 04:00:00 9.1 6 Noroeste 11 Noroeste 0 1015 -0.6 84
2019-04-13 03:00:00 10.1 5 Noroeste 8 Noroeste 0 1015.3 -0.3 85
2019-04-13 02:00:00 8.9 3 Nordeste 9 Nordeste 0 1015.7 0.2 86
2019-04-13 01:00:00 10.1 4 Noroeste 5 Noroeste 0 1015.6 0.6 83
2019-04-13 00:00:00 10.1 3 Noroeste 9 Noroeste 0 1015.6 1.2 79
2019-04-12 23:00:00 11 2 Noroeste 11 Oeste 0 1015.5 1.2 75
2019-04-12 22:00:00 13 9 Sudoeste 13 Sudoeste 0 1015 0.5 70
2019-04-12 21:00:00 13 8 Sudoeste 15 Sudoeste 0 1014.4 0 69
2019-04-12 20:00:00 15.6 9 Sudoeste 17 Sudoeste 0 1014.3 0.3 57
2019-04-12 19:00:00 16.6 12 Sudoeste 18 Sudoeste 0 1014.5 0.1 51
2019-04-12 18:00:00 17.3 12 Sudoeste 21 Sudoeste 0 1014.4 -0.4 50
2019-04-12 17:00:00 17.6 15 Sudoeste 22 Sur 0 1014 -0.7 48
2019-04-12 16:00:00 17.8 14 Sudoeste 24 Sudoeste 0 1014.4 -0.4 47
2019-04-12 15:00:00 17.8 15 Sur 30 Sudoeste 0 1014.8 0.1 53
2019-04-12 14:00:00 18.1 14 Sur 28 Sur 0 1014.7 0.4 56
2019-04-12 13:00:00 18.2 15 Sur 41 Este 0 1014.8 0.7 56
2019-04-12 12:00:00 17.9 12 Este 22 Este 0 1014.7 0.8 54
2019-04-12 11:00:00 17.8 12 Este 24 Nordeste 0 1014.3 0.5 47
2019-04-12 10:00:00 16.5 12 Norte 22 Norte 0 1014.1 0.7 50
2019-04-12 09:00:00 14.3 13 Norte 21 Norte 0 1013.9 0.8 63
2019-04-12 08:00:00 10.3 8 Norte 11 Nordeste 0 1013.8 0.6 81
2019-04-12 07:00:00 9.4 6 Norte 9 Norte 0 1013.4 0 87
2019-04-12 06:00:00 9.5 5 Noroeste 13 Norte 0 1013.1 -0.6 86
2019-04-12 05:00:00 8.8 2 Norte 11 Noroeste 0 1013.2 -0.8 86
2019-04-12 04:00:00 10.8 6 Noroeste 9 Noroeste 0 1013.4 -0.5 80
2019-04-12 03:00:00 12.6 6 Noroeste 13 Oeste 0 1013.7 -0.3 76
2019-04-12 02:00:00 13.3 10 Oeste 15 Oeste 0 1014 -0.2 76
2019-04-12 01:00:00 13 13 Oeste 24 Sudoeste 0 1013.9 0 77
2019-04-12 00:00:00 14.1 18 Sudoeste 28 Sudoeste 0 1014 0.5 72
2019-04-11 23:00:00 14.2 19 Sudoeste 30 Sudoeste 0 1014.2 1.5 68
2019-04-11 22:00:00 14.4 23 Sudoeste 30 Sudoeste 0 1013.9 1.3 62
2019-04-11 21:00:00 14 14 Sudoeste 22 Sudoeste 0 1013.5 1.1 68
2019-04-11 20:00:00 14.9 17 Sudoeste 30 Sudoeste 0 1012.7 0.5 63
2019-04-11 19:00:00 16.1 26 Sudoeste 35 Sudoeste 0 1012.6 -0.1 52
2019-04-11 18:00:00 17.1 23 Sudoeste 35 Sudoeste 0 1012.4 -0.7 53
2019-04-11 17:00:00 18.1 20 Sudoeste 30 Sudoeste 0 1012.2 -0.7 43
2019-04-11 16:00:00 19.3 14 Oeste 26 Noroeste 0 1012.7 -0.7 28
2019-04-11 15:00:00 19 19 Noroeste 33 Noroeste 0 1013.1 -0.3 32
2019-04-11 14:00:00 18.9 17 Norte 30 Norte 0 1012.9 -0.2 34
2019-04-11 13:00:00 18.3 15 Norte 33 Norte 0 1013.4 0.7 40
2019-04-11 12:00:00 -- 18 Noroeste 35 Norte 0 1013.4 1.1 43
2019-04-11 11:00:00 16.8 10 Noroeste 35 Noroeste 0 1013.1 1.4 45
2019-04-11 10:00:00 16.2 18 Noroeste 35 Norte 0 1012.7 1.6 49
2019-04-11 09:00:00 14.6 23 Norte 37 Noroeste 0 1012.3 1.3 57
2019-04-11 08:00:00 13.4 16 Noroeste 32 Norte 0 1011.7 1.1 67
2019-04-11 07:00:00 13.1 10 Noroeste 22 Noroeste 0 1011.1 0.5 68
2019-04-11 06:00:00 10 5 Sudeste 21 Noroeste 0 1011 0.1 69
2019-04-11 05:00:00 8.8 5 Noroeste 9 Norte 0 1010.6 -0.6 77
2019-04-11 04:00:00 9.7 4 Sur 8 Sudeste 0 1010.6 -0.8 75
2019-04-11 03:00:00 12.2 4 Noroeste 9 Noroeste 0 1010.9 -0.2 65
2019-04-11 02:00:00 9.1 2 Noroeste 9 Noroeste 0 1011.2 -0.1 69
2019-04-11 01:00:00 8.9 0 Calma 8 Oeste 0 1011.4 0.3 68
2019-04-11 00:00:00 10.1 6 Noroeste 11 Noroeste 0 1011.1 0.9 63
2019-04-10 23:00:00 12 6 Norte 15 Oeste 0 1011.3 1.5 57
2019-04-10 22:00:00 12.5 6 Noroeste 11 Noroeste 0 1011.1 1.6 58
2019-04-10 21:00:00 13.6 9 Sudoeste 15 Sudoeste 0 1010.2 1.1 66
2019-04-10 20:00:00 15.8 12 Sudoeste 33 Sudoeste 0 1009.8 0.9 49
2019-04-10 19:00:00 17.4 19 Sudoeste 28 Sudoeste 0 1009.5 0.5 37
2019-04-10 18:00:00 18.9 12 Noroeste 30 Oeste 0 1009.1 -- 28
2019-04-10 17:00:00 19.3 18 Oeste 30 Oeste 0 1008.9 -0.4 30
2019-04-10 16:00:00 19.1 23 Oeste 33 Oeste 0 1009 -0.5 30
2019-04-10 15:00:00 17 17 Oeste 30 Noroeste 0 -- -- 42
2019-04-10 14:00:00 17.9 19 Noroeste 35 Noroeste 0 1009.3 -0.4 41
2019-04-10 13:00:00 18.1 25 Oeste 37 Oeste 0 1009.5 0.1 41
2019-04-10 12:00:00 17.2 26 Oeste 39 Noroeste 0 1009.8 0.6 44
2019-04-10 11:00:00 16.6 27 Oeste 45 Noroeste 0 1009.7 0.8 47
2019-04-10 10:00:00 16.1 18 Oeste 32 Oeste 0 1009.4 0.7 51
2019-04-10 09:00:00 14.9 18 Oeste 32 Oeste 0 1009.2 0.5 55
2019-04-10 08:00:00 13.5 20 Oeste 32 Oeste 0 1008.9 0 59
2019-04-10 07:00:00 13.6 20 Oeste 33 Oeste 0 1008.7 0 59
2019-04-10 06:00:00 13.9 22 Oeste 35 Oeste 0 1008.7 0 58
2019-04-10 05:00:00 14 22 Oeste 35 Oeste 0 1008.9 0.1 54
2019-04-10 04:00:00 14.2 20 Oeste 50 Oeste 0 1008.7 -0.3 51
2019-04-10 03:00:00 14.5 35 Oeste 61 Oeste 0 1008.7 -0.3 48
2019-04-10 02:00:00 14.8 35 Oeste 58 Oeste 0 1008.8 -0.9 47
2019-04-10 01:00:00 14.5 36 Oeste 61 Oeste 0 1009 -0.4 51
2019-04-10 00:00:00 14.8 33 Sudoeste 48 Sudoeste 0 1009 -0.4 64
2019-04-09 23:00:00 15.1 27 Oeste 42 Oeste 0 1009.7 0.4 51
2019-04-09 22:00:00 15.3 22 Oeste 46 Oeste 0 1009.4 0.4 47
2019-04-09 21:00:00 14.3 35 Oeste 61 Oeste 0.1 1009.4 0.7 59
2019-04-09 20:00:00 15.7 24 Sudoeste 39 Sudoeste 0 1009.3 0.2 67
2019-04-09 19:00:00 17.2 28 Sudoeste 46 Sudoeste 0 1009 -0.7 58
2019-04-09 18:00:00 17.9 19 Sur 32 Oeste 0 1008.7 -1.3 46
2019-04-09 17:00:00 18.4 25 Sudoeste 37 Sudoeste 0 1009.1 -1.3 42
2019-04-09 16:00:00 19.7 33 Oeste 54 Oeste 0 1009.7 -0.8 34
2019-04-09 15:00:00 19.6 31 Oeste 58 Oeste 0 1010 -0.7 30
2019-04-09 14:00:00 19.3 31 Oeste 59 Oeste 0 1010.4 -0.1 35
2019-04-09 13:00:00 18.7 37 Oeste 55 Oeste 0 1010.5 0.5 39
2019-04-09 12:00:00 17.9 30 Oeste 55 Oeste 0 1010.7 1.1 41
2019-04-09 11:00:00 17.2 31 Oeste 58 Oeste 0 1010.5 1.6 47
2019-04-09 10:00:00 16.6 37 Oeste 65 Oeste 0 1010 1.6 46
2019-04-09 09:00:00 16.1 35 Oeste 59 Oeste 0 1009.6 1.3 50
2019-04-09 08:00:00 15.7 33 Oeste 52 Noroeste 0 1008.9 0.4 50
2019-04-09 07:00:00 16.3 29 Oeste 50 Oeste 0 1008.4 -0.1 49
2019-04-09 06:00:00 16.7 30 Oeste 48 Oeste 0 1008.3 -0.8 46
2019-04-09 05:00:00 17 24 Oeste 45 Oeste 0 1008.5 -1 48
2019-04-09 04:00:00 17 22 Oeste 33 Oeste 0 1008.5 -1.1 55
2019-04-09 03:00:00 14.6 11 Oeste 22 Oeste 0 1009.1 -0.7 68
2019-04-09 02:00:00 16 21 Oeste 32 Sudoeste 0 1009.5 -0.5 72
2019-04-09 01:00:00 15.2 12 Sudoeste 37 Sudoeste 0 1009.6 -0.4 80
2019-04-09 00:00:00 15.5 23 Sudoeste 32 Oeste 0 1009.8 -0.2 83
2019-04-08 23:00:00 15.6 17 Sudoeste 28 Sudoeste 0 1010 0.1 80
2019-04-08 22:00:00 14.9 10 Sudoeste 26 Sudoeste 0 1010 0 84
2019-04-08 21:00:00 15.6 19 Sudoeste 28 Sudoeste 0 1010 -0.2 79
2019-04-08 20:00:00 16.1 12 Sudoeste 21 Sudoeste 0 1009.9 -0.4 79
2019-04-08 19:00:00 17.1 16 Sudoeste 26 Oeste 0 1010 -0.6 74
2019-04-08 18:00:00 17.7 18 Sudoeste 28 Sudoeste 0 1010.2 -0.9 72
2019-04-08 17:00:00 18.4 17 Sudoeste 28 Sudoeste 0 1010.3 -1.1 65
2019-04-08 16:00:00 18.7 22 Sudoeste 33 Oeste 0 1010.6 -1 61
2019-04-08 15:00:00 18.4 24 Sudoeste 35 Sudoeste 0 1011.1 -0.8 64
2019-04-08 14:00:00 18.4 27 Sudoeste 37 Sudoeste 0 1011.4 -0.5 65
2019-04-08 13:00:00 17.2 24 Sudoeste 33 Sudoeste 0 1011.6 -0.1 65
2019-04-08 12:00:00 17.4 21 Sudoeste 30 Sudoeste 0 1011.9 0.1 63
2019-04-08 11:00:00 16.6 20 Sudoeste 28 Sudoeste 0 1011.9 0.5 70
2019-04-08 10:00:00 15.6 13 Sudoeste 21 Sudoeste 0 1011.7 0.4 75
2019-04-08 09:00:00 15 10 Sudoeste 17 Oeste 0 1011.8 0.3 74
2019-04-08 08:00:00 15.2 13 Oeste 24 Oeste 0 1011.4 -0.2 53
2019-04-08 07:00:00 15.1 17 Oeste 28 Oeste 0 1011.3 -0.4 53
2019-04-08 06:00:00 14.9 18 Oeste 28 Oeste 0 1011.5 -0.6 56
2019-04-08 05:00:00 14 11 Oeste 18 Oeste 0 1011.6 -1 59
2019-04-08 04:00:00 12.1 5 Sur 9 Sudeste 0 1011.7 -1.1 74
2019-04-08 03:00:00 8.8 3 Norte 8 Noroeste 0 1012.1 -0.7 90
2019-04-08 02:00:00 9.2 0 Calma 15 Noroeste 0 1012.6 -0.1 88
2019-04-08 01:00:00 10.1 7 Oeste 9 Oeste 0 1012.8 0.2 86
2019-04-08 00:00:00 11.1 9 Oeste 13 Oeste 0 1012.8 0.9 83
2019-04-07 23:00:00 11.9 7 Oeste 13 Noroeste 0 1012.7 1.5 76
2019-04-07 22:00:00 11.9 6 Noroeste 17 Sur 0 1012.6 2.3 69
2019-04-07 21:00:00 14.3 13 Sur 21 Sudoeste 0 1011.9 2.1 62
2019-04-07 20:00:00 15 16 Sudoeste 30 Sudoeste 0 1011.2 1.8 56
2019-04-07 19:00:00 16.5 21 Sudoeste 28 Sudoeste 0 1010.3 1.4 51
2019-04-07 18:00:00 18.3 21 Oeste 42 Oeste 0 1009.8 1.1 28
2019-04-07 17:00:00 17.9 28 Oeste 46 Oeste 0 1009.4 1.3 31
2019-04-07 16:00:00 17.5 27 Oeste 46 Oeste 0 1008.9 1.3 32
2019-04-07 15:00:00 17.1 24 Oeste 46 Oeste 0 1008.7 -- 32
2019-04-07 14:00:00 16.9 33 Oeste 50 Oeste 0 1008.1 1.4 37
2019-04-07 13:00:00 16.5 29 Oeste 54 Oeste 0 1007.6 1.5 42
2019-04-07 12:00:00 15.9 32 Oeste 63 Oeste 0 -- -- 44
2019-04-07 11:00:00 14.8 37 Oeste 61 Oeste 0 1006.7 2.5 47
2019-04-07 10:00:00 14.3 28 Oeste 54 Oeste 0 1006.1 2.4 50
2019-04-07 09:00:00 13.4 33 Oeste 58 Oeste 0 1005.4 2 52
2019-04-07 08:00:00 12.6 37 Oeste 59 Oeste 0 1004.2 1.1 54
2019-04-07 07:00:00 12.3 29 Oeste 55 Oeste 0 1003.7 0.6 54
2019-04-07 06:00:00 12.4 35 Oeste 55 Oeste 0 1003.4 0.2 51
2019-04-07 05:00:00 12.2 28 Oeste 46 Oeste 0 1003.1 -0.2 54
2019-04-07 04:00:00 12.4 29 Oeste 46 Oeste 0 1003.1 -0.6 54
2019-04-07 03:00:00 12.4 21 Oeste 39 Oeste 0 1003.2 -0.5 56
2019-04-07 02:00:00 13.2 17 Oeste 39 Oeste 0 1003.3 -0.6 61
2019-04-07 01:00:00 13.4 14 Oeste 42 Sudoeste 0 1003.7 -0.5 58
2019-04-07 00:00:00 13.6 27 Sudoeste 41 Sudoeste 0 1003.7 -0.3 66
2019-04-06 23:00:00 13.6 28 Sudoeste 46 Sudoeste 0 1003.9 -0.6 64
2019-04-06 22:00:00 12.9 23 Sudoeste 37 Sudoeste 0 1004.2 0.4 68
2019-04-06 21:00:00 12 16 Sur 32 Sudoeste 0 1004 0.1 66
2019-04-06 20:00:00 11.7 22 Sudoeste 63 Oeste 0.2 1004.5 1 66
2019-04-06 19:00:00 12.8 21 Sudoeste 32 Sudoeste 0 1003.8 0.7 70
2019-04-06 18:00:00 12 23 Sudoeste 54 Sudoeste 1.7 1003.9 0.5 70
2019-04-06 17:00:00 15.7 35 Sudoeste 58 Sudoeste 0 1003.5 0 49
2019-04-06 16:00:00 16.4 43 Sudoeste 54 Sudoeste 0 1003.1 -0.5 44
2019-04-06 15:00:00 16.1 40 Sudoeste 50 Sudoeste 0 1003.4 0.1 46
2019-04-06 14:00:00 15.9 35 Sudoeste 55 Oeste 0 1003.5 0.6 41
2019-04-06 13:00:00 15.6 41 Oeste 59 Oeste 0 1003.6 1.2 38
2019-04-06 12:00:00 15.1 40 Oeste 59 Oeste 0 1003.3 1.1 42
2019-04-06 11:00:00 14.6 33 Oeste 63 Oeste 0 1002.9 0.9 46
2019-04-06 10:00:00 13.7 36 Oeste 50 Oeste 0 1002.4 0.8 48
2019-04-06 09:00:00 12.2 23 Oeste 45 Oeste 0 1002.2 1.3 52
2019-04-06 08:00:00 11.8 21 Oeste 39 Oeste 0 1002 1.8 54
2019-04-06 07:00:00 12.3 32 Oeste 50 Oeste 0 1001.6 1.6 52
2019-04-06 06:00:00 12.3 21 Oeste 41 Oeste 0 1000.9 0.4 52
2019-04-06 05:00:00 11.8 24 Oeste 42 Oeste 0 1000.2 -0.2 50
2019-04-06 04:00:00 11.5 22 Oeste 37 Oeste 0 1000 -0.2 56
2019-04-06 03:00:00 11.1 23 Oeste 32 Oeste 0 1000.5 0.8 60
2019-04-06 02:00:00 8.8 14 Sudoeste 50 Oeste 0 1000.4 -0.3 80
2019-04-06 01:00:00 8.8 30 Noroeste 82 Oeste 2.4 1000.2 0.6 82
2019-04-06 00:00:00 10.8 0 Calma 11 Oeste 0 999.7 0.4 86
2019-04-05 23:00:00 10.8 10 Oeste 18 Oeste 0 1000.7 1.5 85
2019-04-05 22:00:00 10.7 0 Calma 13 Oeste 0 999.6 1 85
2019-04-05 21:00:00 11.3 10 Noroeste 41 Noroeste 0.8 999.3 0.9 81
2019-04-05 20:00:00 13.6 33 Oeste 58 Sudoeste 0.1 999.2 0.7 69
2019-04-05 19:00:00 15.9 36 Sudoeste 59 Sudoeste 0 998.6 -0.5 70
2019-04-05 18:00:00 16.4 31 Sudoeste 45 Sudoeste 0 998.4 -1.2 68
2019-04-05 17:00:00 17.1 28 Sudoeste 37 Sudoeste 0 998.5 -1.9 61
2019-04-05 16:00:00 17.2 19 Sudoeste 33 Sur 0 999.1 -2.1 60
2019-04-05 15:00:00 17.9 22 Sur 41 Sur 0 999.6 -2.1 56
2019-04-05 14:00:00 17.3 29 Sur 41 Sudoeste 0 1000.4 -1.4 64
2019-04-05 13:00:00 15.1 24 Sur 33 Sur 0 1001.2 -0.5 81
2019-04-05 12:00:00 15.9 18 Sur 30 Sur 0 1001.7 -0.1 72
2019-04-05 11:00:00 15.5 18 Sur 28 Sur 0 1001.8 -0.1 69
2019-04-05 10:00:00 15.5 19 Sur 32 Sur 0 1001.7 0.1 66
2019-04-05 09:00:00 14.5 14 Sur 26 Sur 0 1001.8 0.3 65
2019-04-05 08:00:00 12.8 17 Sur 24 Sur 0 1001.9 0 67
2019-04-05 07:00:00 11.8 12 Sur 21 Sur 0 1001.6 -0.6 68
2019-04-05 06:00:00 6.9 3 Oeste 11 Sur 0 1001.5 -1.3 79
2019-04-05 05:00:00 6.7 3 Noroeste 13 Norte 0 1001.9 -1.3 80
2019-04-05 04:00:00 7.2 9 Norte 13 Norte 0 1002.2 -1 79
2019-04-05 03:00:00 6.8 7 Noroeste 11 Norte 0 1002.8 -0.4 78
2019-04-05 02:00:00 6.8 7 Noroeste 9 Noroeste 0 1003.2 -0.1 76
2019-04-05 01:00:00 7.2 5 Noroeste 11 Noroeste 0 1003.2 0 72
2019-04-05 00:00:00 7.2 4 Noroeste 11 Norte 0 1003.2 0.1 71
2019-04-04 23:00:00 8.5 8 Noroeste 11 Norte 0 1003.3 0.3 65
2019-04-04 22:00:00 10.4 4 Este 13 Sudeste 0 1003.2 0.3 57
2019-04-04 21:00:00 10.7 8 Sudeste 17 Sudeste 0 1003.1 0.2 53
2019-04-04 20:00:00 12.8 9 Sudeste 17 Sudeste 0 1003 0.1 46
2019-04-04 19:00:00 14.2 13 Este 24 Este 0 1002.9 -0.4 43
2019-04-04 18:00:00 14.8 14 Este 26 Este 0 1002.9 -0.5 42
2019-04-04 17:00:00 15.8 12 Sur 24 Sur 0 1002.9 -0.6 41
2019-04-04 16:00:00 16.1 11 Sur 30 Este 0 1003.3 -0.5 40
2019-04-04 15:00:00 15.2 18 Este 28 Este 0 1003.4 -0.3 43
2019-04-04 14:00:00 16.2 11 Noroeste 26 Norte 0 1003.5 0.3 32
2019-04-04 13:00:00 16.3 16 Noroeste 33 Norte 0 1003.8 1.3 24
2019-04-04 12:00:00 15.3 18 Noroeste 33 Norte 0 1003.7 1.4 30
2019-04-04 11:00:00 14.3 14 Norte 33 Norte 0 1003.2 1.5 33
2019-04-04 10:00:00 13.5 15 Norte 39 Nordeste 0 1002.5 1.4 37
2019-04-04 09:00:00 12.2 17 Norte 30 Nordeste 0 1002.3 1.7 42
2019-04-04 08:00:00 11.1 16 Norte 28 Norte 0 1001.7 1.8 44
2019-04-04 07:00:00 11.8 17 Norte 32 Norte 0 1001.1 1.2 42
2019-04-04 06:00:00 12.1 14 Norte 45 Norte 0 1000.6 0.3 48
2019-04-04 05:00:00 12.4 25 Norte 42 Norte 0 999.9 -0.8 47
2019-04-04 04:00:00 12.6 27 Norte 46 Norte 0 999.9 -1.1 52
2019-04-04 03:00:00 12.6 25 Norte 45 Norte 0 1000.3 -0.9 60
2019-04-04 02:00:00 13 29 Norte 52 Norte 0 1000.7 0.2 62
2019-04-04 01:00:00 13.2 28 Norte 50 Norte 0 1001 1.8 65
2019-04-04 00:00:00 13.8 28 Norte 42 Nordeste 0.1 1001.2 2.3 75
2019-04-03 23:00:00 15.9 4 Este 30 Norte 0 1000.5 1.6 72
2019-04-03 22:00:00 15 13 Sudoeste 21 Sudoeste 0 999.2 -0.2 84
2019-04-03 21:00:00 15.2 14 Sudoeste 22 Sudoeste 0 998.9 -1.1 85
2019-04-03 20:00:00 15.9 12 Sudoeste 24 Sudoeste 0 998.9 -2 81
2019-04-03 19:00:00 16.8 16 Sudoeste 22 Sudoeste 0 999.4 -2.4 79
2019-04-03 18:00:00 17.4 18 Sudoeste 26 Sudoeste 0 1000 -2.8 77
2019-04-03 17:00:00 18.3 14 Sudoeste 30 Sudoeste 0 1000.9 -2.8 73
2019-04-03 16:00:00 18 22 Sudoeste 30 Sudoeste 0 1001.8 -2.8 75
2019-04-03 15:00:00 18 22 Sudoeste 33 Sudoeste 0 1002.8 -2.8 77
2019-04-03 14:00:00 17.6 24 Sudoeste 32 Sudoeste 0 1003.7 -2.6 78
2019-04-03 13:00:00 17.7 24 Sudoeste 32 Sudoeste 0 1004.6 -2.1 78
2019-04-03 12:00:00 17.4 21 Sudoeste 28 Sudoeste 0 1005.6 -1.3 80
2019-04-03 11:00:00 16.8 16 Sudoeste 24 Sudoeste 0 1006.3 -0.9 82
2019-04-03 10:00:00 16 16 Sudoeste 24 Sudoeste 0 1006.7 -0.6 84
2019-04-03 09:00:00 15.5 13 Sudoeste 18 Sudoeste 0 1006.9 -0.8 88
2019-04-03 08:00:00 14.6 13 Sudoeste 22 Sudoeste 0 1007.2 -1.2 89
2019-04-03 07:00:00 14.1 15 Sudoeste 26 Sudoeste 0 1007.3 -1.8 87
2019-04-03 06:00:00 14.6 16 Sudoeste 26 Sudoeste 0 1007.7 -2.1 87
2019-04-03 05:00:00 14.5 14 Sudoeste 22 Sudoeste 0 1008.4 -2.1 88
2019-04-03 04:00:00 14.6 11 Sudoeste 18 Sudoeste 0 1009.1 -2.2 87
2019-04-03 03:00:00 14.5 12 Sudoeste 21 Sudoeste 0 1009.8 -1.8 89
2019-04-03 02:00:00 14.7 13 Sudoeste 21 Sudoeste 0 1010.5 -1.1 90
2019-04-03 01:00:00 15.1 13 Sudoeste 21 Sudoeste 0 1011.3 -0.4 89
2019-04-03 00:00:00 14.8 16 Sudoeste 24 Sudoeste 0 1011.6 -0.1 90
2019-04-02 23:00:00 15.1 14 Sudoeste 24 Sudoeste 0 1011.6 0.4 88
2019-04-02 22:00:00 15.1 17 Sudoeste 26 Sudoeste 0 1011.7 0.5 87
2019-04-02 21:00:00 15.1 15 Sudoeste 22 Sudoeste 0 1011.7 0.1 87
2019-04-02 20:00:00 15.2 13 Sudoeste 22 Sudoeste 0 1011.2 -0.9 85
2019-04-02 19:00:00 15.7 17 Sudoeste 24 Sur 0 1011.2 -1.4 83
2019-04-02 18:00:00 16.7 17 Sudoeste 30 Sudoeste 0 1011.6 -1.6 78
2019-04-02 17:00:00 16.9 23 Sudoeste 32 Sudoeste 0 1012.1 -1.6 75
2019-04-02 16:00:00 17.2 23 Sudoeste 32 Sudoeste 0 1012.6 -1.9 74
2019-04-02 15:00:00 17.5 22 Sudoeste 33 Sudoeste 0 1013.2 -1.3 74
2019-04-02 14:00:00 16.8 21 Sudoeste 32 Sudoeste 0 1013.7 -0.9 76
2019-04-02 13:00:00 16.9 24 Sudoeste 32 Sudoeste 0 1014.5 -0.1 76
2019-04-02 12:00:00 16.5 19 Sudoeste 28 Sudoeste 0 1014.5 0.4 77
2019-04-02 11:00:00 15.7 19 Sudoeste 28 Sudoeste 0 1014.6 0.6 78
2019-04-02 10:00:00 14.6 17 Sudoeste 24 Sudoeste 0 1014.6 0.6 86
2019-04-02 09:00:00 12.1 3 Sudoeste 11 Noroeste 0 1014.1 0.2 94
2019-04-02 08:00:00 7.9 2 Norte 8 Oeste 0 1014 0 94
2019-04-02 07:00:00 8.1 0 Calma 4 Sudeste 0 1014 -0.3 94
2019-04-02 06:00:00 7.9 0 Calma 8 Norte 0 1013.9 -0.6 94
2019-04-02 05:00:00 8.6 4 Noroeste 8 Noroeste 0 1014 -1 94
2019-04-02 04:00:00 8.3 0 Calma 8 Noroeste 0 1014.3 -0.7 93
2019-04-02 03:00:00 9 4 Norte 5 Nordeste 0 1014.5 -0.5 93
2019-04-02 02:00:00 10.2 4 Noroeste 8 Noroeste 0 1015 -0.1 93
2019-04-02 01:00:00 10.2 4 Oeste 5 Oeste 0 1015 0.2 92
2019-04-02 00:00:00 11.1 2 Oeste 15 Oeste 0 1015 1 91
2019-04-01 23:00:00 12.2 3 Noroeste 8 Oeste 0 1015.1 1.6 91
2019-04-01 22:00:00 11.7 4 Norte 13 Noroeste 0 1014.8 1.9 90
2019-04-01 21:00:00 12.5 3 Sudeste 5 Sudoeste 0 1014 1 88
2019-04-01 20:00:00 14.1 0 Calma 8 Nordeste 0 1013.5 0.5 85
2019-04-01 19:00:00 14.8 4 Este 11 Este 0 1012.9 -0.2 81
2019-04-01 18:00:00 14.9 6 Nordeste 13 Este 0 1013 -0.2 81
2019-04-01 17:00:00 14.9 7 Este 13 Este 0 1013 -0.4 83
2019-04-01 16:00:00 14.9 10 Nordeste 17 Este 0.2 1013.1 -0.3 85
2019-04-01 15:00:00 14 5 Nordeste 13 Este 0.3 1013.2 0 89
2019-04-01 14:00:00 13.9 10 Este 22 Este 0 1013.4 0.7 90
2019-04-01 13:00:00 14.3 15 Nordeste 24 Nordeste 0.1 1013.4 1.4 87
2019-04-01 12:00:00 15 18 Nordeste 26 Nordeste 0 1013.2 1.8 81
2019-04-01 11:00:00 14.9 17 Nordeste 26 Nordeste 0 1012.7 1.7 81
2019-04-01 10:00:00 14.2 14 Nordeste 22 Nordeste 0.2 1012 1.5 84
2019-04-01 09:00:00 14 13 Nordeste 24 Norte 0 1011.4 1.3 86
2019-04-01 08:00:00 13.8 12 Norte 21 Nordeste 0 1011 0.8 87
2019-04-01 07:00:00 13.8 14 Nordeste 28 Nordeste 0 1010.5 0.3 86
2019-04-01 06:00:00 13.7 19 Nordeste 30 Nordeste 0.3 1010.1 -0.3 88
2019-04-01 05:00:00 13.7 18 Nordeste 30 Nordeste 0.7 1010.2 -0.2 88
2019-04-01 04:00:00 13.9 23 Nordeste 33 Nordeste 0.8 1010.2 -0.2 87
2019-04-01 03:00:00 14.3 26 Nordeste 35 Nordeste 0.1 1010.4 -0.1 87
2019-04-01 02:00:00 14.5 15 Nordeste 35 Nordeste 0 1010.4 -0.2 86
2019-04-01 01:00:00 14.5 22 Nordeste 35 Este 0 1010.4 0.2 88
2019-04-01 00:00:00 14.7 25 Nordeste 41 Nordeste 0.2 1010.5 0.7 86
2019-03-31 23:00:00 14.9 28 Nordeste 39 Nordeste 0 1010.6 1.1 87
2019-03-31 22:00:00 15.1 23 Nordeste 35 Nordeste 0 1010.2 1 90
2019-03-31 21:00:00 15.1 21 Nordeste 33 Nordeste 0 1009.8 0.7 90
2019-03-31 20:00:00 15.3 22 Nordeste 32 Nordeste 0 1009.5 0.2 88
2019-03-31 19:00:00 16 19 Nordeste 28 Nordeste 0 1009.2 -0.6 83
2019-03-31 18:00:00 16.2 21 Nordeste 30 Nordeste 0 1009.1 -1.6 82
2019-03-31 17:00:00 16.2 20 Nordeste 28 Nordeste 0 1009.3 -2.1 82
2019-03-31 16:00:00 16.1 18 Nordeste 30 Nordeste 0 1009.8 -2.2 82
2019-03-31 15:00:00 16.2 14 Nordeste 35 Nordeste 0 1010.7 -2 81
2019-03-31 14:00:00 15.9 24 Nordeste 37 Nordeste 0 1011.4 -1.2 82
2019-03-31 13:00:00 15.4 23 Norte 33 Norte 0.1 1012 -0.7 84
2019-03-31 12:00:00 14.5 14 Norte 22 Norte 1.4 1012.7 -0.2 85
2019-03-31 11:00:00 14.9 15 Nordeste 28 Nordeste 0 1012.6 0.2 78
2019-03-31 10:00:00 14.7 16 Nordeste 24 Nordeste 0 1012.7 0 76
2019-03-31 09:00:00 14.3 14 Norte 24 Norte 0 1012.9 -0.8 76
2019-03-31 08:00:00 13.6 18 Nordeste 30 Nordeste 0 1012.4 -1.4 78
2019-03-31 07:00:00 13.8 20 Nordeste 30 Norte 0 1012.7 -2.1 80
2019-03-31 06:00:00 13.9 14 Nordeste 22 Nordeste 0 1013.7 -1.6 81
2019-03-31 05:00:00 13.6 14 Nordeste 18 Nordeste 0 1013.8 -2.7 82
2019-03-31 03:00:00 13.1 15 Nordeste 26 Nordeste 0 1015.3 -2.1 80
2019-03-31 01:00:00 13.7 14 Nordeste 33 Este 0 1016.5 -1.1 79
2019-03-31 00:00:00 14.4 24 Nordeste 32 Nordeste 0 1017 -1 77
2019-03-30 23:00:00 13.5 13 Nordeste 48 Norte 0 1017.4 -0.2 76
2019-03-30 22:00:00 13.7 19 Norte 28 Norte 0 1017.6 0.2 72
2019-03-30 21:00:00 13.8 15 Norte 22 Norte 0 1018 0.7 69
2019-03-30 20:00:00 13.9 14 Norte 26 Norte 0 1017.6 0.2 64
2019-03-30 19:00:00 14.1 15 Nordeste 24 Nordeste 0 1017.4 -0.6 64
2019-03-30 18:00:00 15.6 19 Este 30 Este 0 1017.3 -1.3 60
2019-03-30 17:00:00 15.9 24 Este 32 Este 0 1017.4 -2.2 58
2019-03-30 16:00:00 16.3 24 Este 35 Este 0 1018 -2.4 58
2019-03-30 15:00:00 16.4 25 Este 33 Este 0 1018.6 -2.2 56
2019-03-30 14:00:00 16.4 23 Este 33 Este 0 1019.6 -1.8 55
2019-03-30 13:00:00 16.4 22 Este 33 Norte 0 1020.4 -1.1 54
2019-03-30 12:00:00 16.6 21 Este 32 Este 0 1020.8 -0.7 54
2019-03-30 11:00:00 16 21 Nordeste 30 Este 0 1021.4 -0.1 53
2019-03-30 10:00:00 15.4 19 Este 28 Este 0 1021.5 0 54
2019-03-30 09:00:00 14.1 14 Nordeste 22 Nordeste 0 1021.5 0.5 61
2019-03-30 08:00:00 9.8 7 Norte 9 Norte 0 1021.5 0.1 79
2019-03-30 07:00:00 7.8 4 Norte 13 Norte 0 1021.5 -0.2 82
2019-03-30 06:00:00 8 6 Norte 13 Norte 0 1021 -1.2 83
2019-03-30 05:00:00 7.8 5 Norte 9 Norte 0 1021.4 -1.3 83
2019-03-30 04:00:00 8.1 6 Norte 11 Norte 0 1021.7 -1.5 82
2019-03-30 03:00:00 8.4 9 Norte 13 Norte 0 1022.2 -1.3 81
2019-03-30 02:00:00 9.2 10 Norte 13 Norte 0 1022.7 -1.1 78
2019-03-30 01:00:00 10.5 5 Norte 11 Norte 0 1023.2 -0.5 74
2019-03-30 00:00:00 11.3 5 Norte 11 Nordeste 0 1023.5 0 72
2019-03-29 23:00:00 11.4 7 Norte 11 Norte 0 1023.8 0.6 71
2019-03-29 22:00:00 11.7 8 Norte 15 Nordeste 0 1023.7 0.5 69
2019-03-29 21:00:00 11.7 12 Nordeste 17 Nordeste 0 1023.5 0.4 67
2019-03-29 20:00:00 12.6 13 Nordeste 21 Este 0 1023.2 0.1 63
2019-03-29 19:00:00 13.6 14 Este 24 Este 0 1023.2 -0.1 65
2019-03-29 18:00:00 14.7 18 Este 30 Este 0 1023.1 -1 60
2019-03-29 17:00:00 15.6 21 Este 30 Este 0 1023.1 -- 56
2019-03-29 16:00:00 16.2 17 Este 26 Este 0 1023.3 -2.2 51
2019-03-29 15:00:00 16.4 16 Este 26 Nordeste 0 1024.1 -1.7 45
2019-03-29 14:00:00 16.6 15 Este 24 Norte 0 -- -- 43
2019-03-29 13:00:00 16.7 14 Este 22 Este 0 1025.5 -0.6 51
2019-03-29 12:00:00 16.3 15 Nordeste 24 Norte 0 1025.8 -0.2 57
2019-03-29 11:00:00 15.7 13 Nordeste 18 Este 0 1026.1 0.4 58
2019-03-29 10:00:00 15.6 13 Nordeste 21 Este 0 1026.1 0.8 61
2019-03-29 09:00:00 14.7 9 Este 13 Nordeste 0 1026 1 66
2019-03-29 08:00:00 11.2 0 Calma 8 Norte 0 1025.7 0.9 78
2019-03-29 07:00:00 7.7 5 Norte 8 Norte 0 1025.3 0.3 85
2019-03-29 06:00:00 7 4 Norte 9 Norte 0 1025 -0.1 85
2019-03-29 05:00:00 7.6 5 Norte 8 Norte 0 1024.8 -0.7 85
2019-03-29 04:00:00 6.3 4 Norte 9 Norte 0 1025 -0.7 85
2019-03-29 03:00:00 6.9 2 Norte 8 Noroeste 0 1025.1 -0.9 84
2019-03-29 02:00:00 7.4 4 Noroeste 9 Norte 0 1025.5 -0.6 83
2019-03-29 01:00:00 7.5 0 Calma 8 Noroeste 0 1025.7 -0.5 78
2019-03-29 00:00:00 7.5 0 Calma 9 Norte 0 1026 0 74
2019-03-28 23:00:00 8.3 3 Norte 8 Norte 0 1026.1 0.8 69
2019-03-28 22:00:00 9 3 Norte 13 Norte 0 1026.2 1.1 67
2019-03-28 21:00:00 9.9 10 Norte -- -- 0 1026 1 65
2019-03-28 20:00:00 11.7 -- -- -- -- 0 1025.3 0.6 55
2019-03-28 19:00:00 14 4 Este 11 Norte 0 1025.1 0.4 50
2019-03-28 18:00:00 15.4 9 Este 18 Este 0 1025 0.2 48
2019-03-28 17:00:00 16.1 13 Este 22 Este 0 1024.7 -0.5 48
2019-03-28 16:00:00 16.5 15 Este 28 Este 0 1024.7 -0.6 53
2019-03-28 15:00:00 16.8 18 Este 28 Norte 0 1024.8 -0.8 50
2019-03-28 14:00:00 17.3 21 Este 30 Norte 0 1025.2 -0.4 43
2019-03-28 13:00:00 17.3 21 Este 37 Norte 0 1025.3 -0.2 48
2019-03-28 12:00:00 16.9 26 Este 35 Este 0 1025.6 0.3 54
2019-03-28 11:00:00 17.4 12 Nordeste 28 Nordeste 0 1025.6 0.3 44
2019-03-28 10:00:00 16.1 18 Nordeste 30 Nordeste 0 1025.5 0.5 51
2019-03-28 09:00:00 14.6 20 Nordeste 30 Nordeste 0 1025.3 0.7 61
2019-03-28 08:00:00 12 7 Este 17 Norte 0 1025.3 1.1 68
2019-03-28 07:00:00 8.3 4 Norte 11 Norte 0 1025 1 69
2019-03-28 06:00:00 7.3 5 Nordeste 13 Norte 0 1024.6 0.4 70
2019-03-28 05:00:00 10.3 12 Norte 17 Norte 0 1024.2 0.1 60
2019-03-28 04:00:00 8.2 8 Norte 13 Norte 0 1024 -0.3 79
2019-03-28 03:00:00 8 10 Noroeste 13 Norte 0 1024.2 -0.3 80
2019-03-28 02:00:00 7.8 3 Noroeste 9 Norte 0 1024.1 -0.2 76
2019-03-28 01:00:00 8.8 6 Norte 11 Norte 0 1024.3 0.3 67
2019-03-28 00:00:00 8.9 5 Oeste 11 Nordeste 0 1024.5 1.1 63
2019-03-27 23:00:00 9.1 6 Nordeste 21 Nordeste 0 1024.3 1.5 64
2019-03-27 22:00:00 8.9 12 Nordeste 18 Nordeste 0 1024 1.7 67
2019-03-27 21:00:00 11.6 13 Nordeste 22 Norte 0 1023.4 1.6 59
2019-03-27 20:00:00 12.6 11 Nordeste 22 Norte 0 1022.8 1.3 52
2019-03-27 19:00:00 14.7 17 Norte 30 Norte 0 1022.3 0.7 36
2019-03-27 18:00:00 16.4 21 Nordeste 35 Nordeste 0 1021.8 0.1 30
2019-03-27 17:00:00 17.3 17 Nordeste 33 Este 0 1021.5 -0.4 35
2019-03-27 16:00:00 17.7 21 Nordeste 32 Nordeste 0 1021.6 -0.4 34
2019-03-27 15:00:00 17.3 22 Este 33 Este 0 1021.7 -0.4 33
2019-03-27 14:00:00 17.4 23 Nordeste 35 Este 0 1021.9 -0.3 26
2019-03-27 13:00:00 17.5 24 Este 35 Este 0 1022 0.2 37
2019-03-27 12:00:00 17.5 23 Nordeste 59 Norte 0 1022.1 0.5 31
2019-03-27 11:00:00 16.3 31 Norte 50 Nordeste 0 1022.2 0.8 44
2019-03-27 10:00:00 15.6 32 Nordeste 46 Nordeste 0 1021.8 0.7 46
2019-03-27 09:00:00 14.8 25 Norte 39 Nordeste 0 1021.6 0.7 47
2019-03-27 08:00:00 12.1 8 Nordeste 17 Norte 0 1021.4 0.6 62
2019-03-27 07:00:00 9.8 12 Norte 18 Norte 0 1021.1 0 64
2019-03-27 06:00:00 9.4 14 Nordeste 30 Nordeste 0 1020.9 -0.7 61
2019-03-27 05:00:00 7.5 10 Nordeste 28 Norte 0 1020.8 -1.1 71
2019-03-27 04:00:00 6.3 3 Norte 13 Norte 0 1021.1 -0.7 66
2019-03-27 03:00:00 7.2 4 Norte 11 Norte 0 1021.6 0 65
2019-03-27 02:00:00 7.8 7 Norte 17 Norte 0 1021.9 0.4 67
2019-03-27 01:00:00 8.2 11 Norte 13 Norte 0 1021.8 0.6 68
2019-03-27 00:00:00 11.2 10 Este 26 Este 0 1021.6 0.9 57
2019-03-26 23:00:00 12.3 17 Nordeste 30 Este 0 1021.5 1.4 57
2019-03-26 22:00:00 12.9 23 Este 39 Este 0 1021.2 1.8 50
2019-03-26 21:00:00 12.9 25 Este 35 Este 0 1020.7 1.7 54
2019-03-26 20:00:00 11.9 19 Nordeste 35 Nordeste 0 1020.1 1.4 51
2019-03-26 19:00:00 13.4 23 Nordeste 41 Nordeste 0 1019.4 1 37
2019-03-26 18:00:00 14.9 27 Nordeste 42 Nordeste 0 1019 0.6 33
2019-03-26 17:00:00 15.7 31 Nordeste 45 Norte 0 1018.7 -0.1 36
2019-03-26 16:00:00 16.8 28 Nordeste 45 Este 0 1018.4 -- 36
2019-03-26 15:00:00 16.6 28 Este 46 Este 0 1018.4 -0.8 39
2019-03-26 14:00:00 17.2 31 Este 42 Este 0 1018.8 -0.4 28
2019-03-26 13:00:00 -- -- -- 39 Este 0 -- -- --
2019-03-26 12:00:00 17.9 26 Este 37 Este 0 1019.2 0.8 27
2019-03-26 11:00:00 17 19 Este 32 Este 0 1019.2 1.1 51
2019-03-26 10:00:00 16.1 19 Nordeste 37 Este 0 1019 1.7 62
2019-03-26 09:00:00 14 17 Nordeste 32 Nordeste 0 1018.4 1.8 80
2019-03-26 08:00:00 13.2 12 Norte 17 Norte 0 1018.1 1.9 86
2019-03-26 07:00:00 10.5 13 Norte 17 Norte 0 1017.3 1.5 92
2019-03-26 06:00:00 9.7 7 Norte 11 Norte 0 1016.6 0.4 90
2019-03-26 05:00:00 8.7 8 Norte 13 Norte 0 1016.2 -0.3 88
2019-03-26 04:00:00 9.3 6 Norte 13 Norte 0 1015.8 -0.6 84
2019-03-26 03:00:00 8.9 8 Norte 13 Norte 0 1016.2 -0.2 81
2019-03-26 02:00:00 9.3 7 Norte 9 Norte 0 1016.5 0 79
2019-03-26 01:00:00 10.1 7 Norte 17 Norte 0 1016.4 0.2 79
2019-03-26 00:00:00 10.3 13 Norte 15 Norte 0 1016.4 0.1 76
2019-03-25 23:00:00 10.9 5 Norte 15 Norte 0 1016.5 0.8 73
2019-03-25 22:00:00 12.3 7 Norte 15 Norte 0 1016.2 0.4 68
2019-03-25 21:00:00 12.5 5 Norte 9 Nordeste 0 1016.3 0.6 68
2019-03-25 20:00:00 13.4 8 Nordeste 18 Nordeste 0 1015.7 -0.3 65
2019-03-25 19:00:00 16 13 Nordeste 21 Nordeste 0 1015.8 -0.5 47
2019-03-25 18:00:00 17.5 11 Este 17 Este 0 1015.7 -1.2 53
2019-03-25 17:00:00 17.7 11 Este 18 Este 0 1016 -1.7 53
2019-03-25 16:00:00 18.5 11 Este 17 Este 0 1016.3 -2 52
2019-03-25 15:00:00 18.8 10 Este 18 Nordeste 0 1016.9 -2.1 56
2019-03-25 14:00:00 18.9 14 Este 21 Este 0 1017.7 -1.6 56
2019-03-25 13:00:00 18.9 12 Este 18 Norte 0 1018.3 -1.1 49
2019-03-25 12:00:00 19.1 11 Sudoeste 15 Sur 0 1019 0 43
2019-03-25 11:00:00 18.5 6 Sur 15 Este 0 1019.3 0.5 43
2019-03-25 10:00:00 17.4 9 Este 13 Norte 0 1019.4 0.9 41
2019-03-25 09:00:00 14.8 5 Sur 8 Oeste 0 1019 0.6 60
2019-03-25 08:00:00 9.9 5 Oeste 8 Oeste 0 1018.8 0.1 76
2019-03-25 07:00:00 6.6 4 Nordeste 11 Norte 0 1018.5 -0.3 80
2019-03-25 06:00:00 7.2 5 Norte 8 Norte 0 1018.4 -0.6 79
2019-03-25 05:00:00 7 2 Norte 11 Norte 0 1018.7 -1 81
2019-03-25 04:00:00 7.6 4 Oeste -- -- 0 1018.8 -1.2 80
2019-03-25 03:00:00 8 3 Oeste 8 Noroeste 0 1019 -1.3 81
2019-03-25 02:00:00 9 4 Noroeste 9 Norte 0 1019.7 -1 81
2019-03-25 01:00:00 9.3 9 Norte 11 Norte 0 1020 -0.6 83
2019-03-25 00:00:00 9.2 2 Norte 9 Norte 0 1020.3 0 83
2019-03-24 23:00:00 10.8 8 Noroeste 13 Oeste 0 1020.7 0.5 82
2019-03-24 22:00:00 11.3 10 Norte 13 Noroeste 0 1020.6 0.5 79
2019-03-24 21:00:00 12 7 Noroeste 17 Norte 0 1020.3 0.2 79
2019-03-24 20:00:00 13.1 3 Este 11 Nordeste 0 1020.2 0.2 83
2019-03-24 19:00:00 14.5 8 Nordeste 13 Este 0 1020.1 -0.4 73
2019-03-24 18:00:00 16.5 9 Este 13 Este 0 1020.1 -0.5 68
2019-03-24 17:00:00 18.3 7 Sudoeste 17 Sudoeste 0 1020 -1.6 52
2019-03-24 16:00:00 18.6 12 Sudoeste 17 Oeste 0 1020.5 -1.9 50
2019-03-24 15:00:00 19.2 6 Sudoeste 17 Sudoeste 0 1020.6 -1.8 51
2019-03-24 14:00:00 18.2 14 Sudoeste 24 Sudoeste 0 1021.6 -1.1 61
2019-03-24 13:00:00 17.7 15 Sudoeste 22 Sudoeste 0 1022.4 -0.3 69
2019-03-24 12:00:00 19.3 8 Sur 15 Norte 0 1022.4 0.1 48
2019-03-24 11:00:00 17.6 9 Este 15 Este 0 1022.7 0.6 63
2019-03-24 10:00:00 15.9 12 Este 15 Este 0 1022.7 0.9 76
2019-03-24 09:00:00 15.7 4 Sudeste -- -- 0 1022.3 0.8 66
2019-03-24 08:00:00 10.5 5 Norte 11 Norte 0 1022.1 0.5 77
2019-03-24 07:00:00 7.8 3 Norte 9 Norte 0 1021.8 0.1 79
2019-03-24 06:00:00 7.6 5 Norte 9 Norte 0 1021.5 -0.5 81
2019-03-24 05:00:00 7.8 5 Norte 13 Norte 0 1021.6 -0.6 84
2019-03-24 04:00:00 8.3 4 Norte 5 Norte 0 1021.7 -0.7 84
2019-03-24 03:00:00 8.8 4 Oeste 8 Oeste 0 1022 -0.9 83
2019-03-24 02:00:00 8.8 3 Oeste 8 Norte 0 1022.2 -1.2 82
2019-03-24 01:00:00 8.8 6 Norte 9 Norte 0 1022.4 -0.9 83
2019-03-24 00:00:00 9.3 5 Norte 8 Norte 0 1022.9 -0.4 82
2019-03-23 23:00:00 10.1 2 Noroeste 5 Oeste 0 1023.4 0.6 83
2019-03-23 22:00:00 11 3 Noroeste 15 Noroeste 0 1023.3 0.6 79
2019-03-23 21:00:00 11.4 9 Noroeste 11 Noroeste 0 1023.3 1.1 78
2019-03-23 20:00:00 13.1 5 Norte 11 Nordeste 0 1022.8 0.4 79
2019-03-23 19:00:00 14.6 9 Este 15 Este 0 1022.7 -0.2 78
2019-03-23 18:00:00 16.7 5 Este 13 Nordeste 0 1022.2 -0.8 66
2019-03-23 17:00:00 16.9 9 Este 17 Este 0 1022.4 -0.9 63
2019-03-23 16:00:00 17.2 13 Este 22 Este 0 1022.9 -0.9 60
2019-03-23 15:00:00 17.4 16 Este 28 Este 0 1023 -1 57
2019-03-23 14:00:00 17.6 19 Nordeste 26 Este 0 1023.3 -0.6 48
2019-03-23 13:00:00 17.8 16 Este 30 Este 0 1023.8 -0.3 50
2019-03-23 12:00:00 17.4 22 Este 32 Este 0 1024 0.1 60
2019-03-23 11:00:00 17.4 14 Este 24 Este 0 1023.9 0.3 70
2019-03-23 10:00:00 16.7 12 Norte 21 Norte 0 1024.1 0.6 62
2019-03-23 09:00:00 15 5 Norte 11 Norte 0 1023.9 0.8 76
2019-03-23 08:00:00 12.9 5 Norte 11 Norte 0 1023.6 0.6 85
2019-03-23 07:00:00 12 0 Calma 9 Noroeste 0 1023.5 0.4 86
2019-03-23 06:00:00 11.3 2 Este 11 Norte 0 1023.1 -0.3 87
2019-03-23 05:00:00 11.6 6 Norte 9 Nordeste 0 1023 -0.7 85
2019-03-23 04:00:00 12.6 8 Nordeste 13 Nordeste 0 1023.1 -0.6 85
2019-03-23 03:00:00 12.8 8 Nordeste 13 Norte 0 1023.4 -0.4 85
2019-03-23 02:00:00 12.8 9 Nordeste 17 Norte 0 1023.7 -0.2 85
2019-03-23 01:00:00 13.5 10 Nordeste 15 Norte 0 1023.7 0 83
2019-03-23 00:00:00 13.3 10 Nordeste 15 Norte 0 1023.8 0.4 82
2019-03-22 23:00:00 14.1 9 Norte 17 Norte 0 1023.9 1 79
2019-03-22 22:00:00 14.1 9 Nordeste 21 Este 0 1023.7 1.2 77
2019-03-22 21:00:00 14.5 12 Nordeste 26 Norte 0 1023.4 1.4 74
2019-03-22 20:00:00 14.7 18 Nordeste 28 Nordeste 0 1022.9 0.8 71
2019-03-22 19:00:00 15.7 19 Norte 30 Norte 0 1022.5 0.2 64
2019-03-22 18:00:00 17.1 21 Norte 33 Nordeste 0 1022 -0.6 55
2019-03-22 17:00:00 18 21 Norte 35 Nordeste 0 1022.1 -1.1 52
2019-03-22 16:00:00 18.6 21 Norte 37 Norte 0 1022.3 -1.3 53
2019-03-22 15:00:00 18.8 24 Nordeste 37 Norte 0 1022.6 -1.1 52
2019-03-22 14:00:00 18.1 23 Norte 41 Norte 0 1023.2 -0.6 57
2019-03-22 13:00:00 17.5 21 Norte 33 Nordeste 0 1023.6 -0.1 59
2019-03-22 12:00:00 18.4 19 Nordeste 37 Norte 0 1023.7 0.2 55
2019-03-22 11:00:00 17 23 Norte 35 Norte 0 1023.8 0.5 57
2019-03-22 10:00:00 15.2 23 Norte 37 Norte 0 1023.7 0.7 62
2019-03-22 09:00:00 14.2 22 Norte 33 Norte 0 1023.5 0.9 66
2019-03-22 08:00:00 12.9 18 Norte 33 Norte 0 1023.3 0.4 69
2019-03-22 07:00:00 12.3 21 Norte 33 Norte 0 1023 0.3 67
2019-03-22 06:00:00 12.5 22 Norte 35 Norte 0 1022.6 -0.5 62
2019-03-22 05:00:00 12 16 Norte 28 Norte 0 1022.9 -0.7 66
2019-03-22 04:00:00 11.8 18 Norte 30 Norte 0 1022.7 -1 69
2019-03-22 03:00:00 11.7 14 Norte 22 Norte 0 1023.1 -1 71
2019-03-22 02:00:00 11.2 9 Norte 22 Norte 0 1023.6 -0.8 70
2019-03-22 01:00:00 11.7 13 Norte 26 Norte 0 1023.7 -0.6 69
2019-03-22 00:00:00 11.5 15 Nordeste 21 Norte 0 1024.1 0 70
2019-03-21 23:00:00 10.9 11 Nordeste 18 Nordeste 0 1024.4 1 71
2019-03-21 22:00:00 11.8 15 Nordeste 30 Norte 0 1024.3 1.1 68
2019-03-21 21:00:00 12.6 19 Nordeste 30 Nordeste 0 1024.1 1.5 63
2019-03-21 20:00:00 12.4 18 Norte 37 Norte 0 1023.4 1 61
2019-03-21 19:00:00 13.1 27 Nordeste 41 Nordeste 0 1023.2 0.5 62
2019-03-21 18:00:00 14.5 28 Nordeste 41 Nordeste 0 1022.6 -0.4 52
2019-03-21 17:00:00 15.3 29 Norte 45 Norte 0 1022.4 -1.1 48
2019-03-21 16:00:00 16.1 28 Nordeste 50 Norte 0 1022.7 -1.3 45
2019-03-21 15:00:00 15.9 31 Nordeste 48 Nordeste 0 1023 -1.3 46
2019-03-21 14:00:00 15.3 34 Norte 54 Nordeste 0 1023.5 -0.8 49
2019-03-21 13:00:00 15.9 32 Nordeste 54 Norte 0 1024 -0.2 42
2019-03-21 12:00:00 16.1 33 Nordeste 54 Norte 0 1024.3 0.3 46
2019-03-21 11:00:00 15.2 31 Norte 50 Norte 0 1024.3 0.6 48
2019-03-21 10:00:00 14.1 30 Norte 48 Nordeste 0 1024.2 0.8 53
2019-03-21 09:00:00 13.2 26 Norte 45 Norte 0 1024 0.9 55
2019-03-21 08:00:00 12.2 23 Norte 39 Norte 0 1023.7 0.4 62
2019-03-21 07:00:00 11.3 22 Norte 35 Norte 0 1023.4 -0.2 62
2019-03-21 06:00:00 10.9 18 Norte 35 Norte 0 1023.1 -1 63
2019-03-21 05:00:00 11.1 22 Norte 35 Norte 0 1023.3 -1.3 64
2019-03-21 04:00:00 10.7 18 Norte 28 Norte 0 1023.6 -1.5 65
2019-03-21 03:00:00 9.7 14 Norte 22 Norte 0 1024.1 -1.1 65
2019-03-21 02:00:00 10.1 16 Norte 24 Norte 0 1024.6 -1 63
2019-03-21 01:00:00 7.9 9 Norte 13 Norte 0 1025.1 -0.7 73
2019-03-21 00:00:00 9.2 12 Norte 18 Nordeste 0 1025.2 -0.1 72
2019-03-20 23:00:00 9.8 14 Norte 24 Norte 0 1025.6 0.5 70
2019-03-20 22:00:00 10.1 16 Nordeste 22 Norte 0 1025.8 1.1 70
2019-03-20 21:00:00 10.1 14 Norte 21 Nordeste 0 1025.3 1.1 72
2019-03-20 20:00:00 9.7 12 Norte 46 Nordeste 0.5 1025.1 1.2 76
2019-03-20 19:00:00 11.3 17 Nordeste 42 Nordeste 0 1024.7 0.7 66
2019-03-20 18:00:00 12.2 30 Nordeste 50 Este 0 1024.2 0.1 61
2019-03-20 17:00:00 13.3 30 Norte 48 Nordeste 0 1023.9 -0.7 51
2019-03-20 16:00:00 13.4 31 Norte 48 Norte 0 1024 -1.1 48
2019-03-20 15:00:00 14.2 37 Norte 59 Norte 0 1024.1 -1.3 47
2019-03-20 14:00:00 14.2 37 Norte 58 Norte 0 1024.6 -0.6 45
2019-03-20 13:00:00 14.4 30 Nordeste 50 Nordeste 0 1025.1 0 44
2019-03-20 12:00:00 14 34 Nordeste 55 Nordeste 0 1025.4 0.9 46
2019-03-20 11:00:00 14.8 30 Nordeste 48 Nordeste 0 1025.2 1.1 43
2019-03-20 10:00:00 14.1 33 Nordeste 50 Nordeste 0 1025.1 1.6 45
2019-03-20 09:00:00 12.8 23 Nordeste 39 Nordeste 0 1024.5 1.3 59
2019-03-20 08:00:00 11.5 15 Nordeste 26 Norte 0 1024.1 1.2 65
2019-03-20 07:00:00 10.4 12 Norte 18 Nordeste 0.1 1023.5 0.9 72
2019-03-20 06:00:00 10.2 12 Norte 18 Norte 0 1023.2 0 68
2019-03-20 05:00:00 9.5 13 Norte 18 Norte 0 1022.9 -0.6 71
2019-03-20 04:00:00 9.9 12 Norte 17 Nordeste 0 1022.6 -0.8 74
2019-03-20 03:00:00 10.4 10 Norte 17 Nordeste 0 1023.2 -0.5 75
2019-03-20 02:00:00 11.4 13 Norte 21 Nordeste 0 1023.5 -0.1 67
2019-03-20 01:00:00 10.5 6 Norte 15 Norte 0 1023.4 0.3 67
2019-03-20 00:00:00 10.2 9 Norte 18 Norte 0 1023.7 0.9 67
2019-03-19 23:00:00 9.5 13 Nordeste 21 Nordeste 0 1023.6 0.9 68
2019-03-19 22:00:00 8.3 12 Norte 18 Norte 0 1023.1 0.9 79
2019-03-19 21:00:00 8.6 6 Nordeste 13 Norte 0 1022.8 1.4 80
2019-03-19 20:00:00 8.8 11 Nordeste 21 Norte 0 1022.7 1.6 76
2019-03-19 19:00:00 10.6 15 Nordeste 28 Norte 0 1022.2 1.4 64
2019-03-19 18:00:00 11.2 15 Norte 37 Nordeste 0 1021.4 0.3 62
2019-03-19 17:00:00 11.8 22 Nordeste 33 Este 0 1021.1 0.2 62
2019-03-19 16:00:00 12.1 9 Nordeste 24 Este 0 1020.8 -0.2 66
2019-03-19 15:00:00 10.5 19 Nordeste 35 Norte 2.8 1021.1 0.1 78
2019-03-19 14:00:00 10.7 12 Este 24 Este 0.6 1020.9 -0.2 80
2019-03-19 13:00:00 11.9 13 Nordeste 22 Este 0 1021 0.2 62
2019-03-19 12:00:00 12.1 12 Nordeste 22 Norte 0.1 1021 0.2 70
2019-03-19 11:00:00 11.3 7 Nordeste 13 Noroeste 0 1021.1 0.7 74
2019-03-19 10:00:00 9.8 4 Norte 13 Norte 0 1020.8 0.3 87
2019-03-19 09:00:00 9.7 4 Noroeste 26 Noroeste 0.4 1020.8 0.3 83
2019-03-19 08:00:00 9.5 5 Norte 21 Sur 2.5 1020.4 0 83
2019-03-19 07:00:00 9.3 9 Sur 17 Noroeste 2.6 1020.5 0.1 86
2019-03-19 06:00:00 8.9 9 Oeste 13 Oeste 0 1020.5 -0.7 89
2019-03-19 05:00:00 7.6 0 Calma 5 Oeste 0 1020.4 -1.5 89
2019-03-19 04:00:00 6.5 2 Este 9 Noroeste 0 1020.4 -1.7 89
2019-03-19 03:00:00 7.4 3 Norte 8 Norte 0 1021.2 -1 88
2019-03-19 02:00:00 6.5 2 Norte 8 Norte 0 1021.9 -0.5 90
2019-03-19 01:00:00 6.3 4 Noroeste 9 Noroeste 0 1022.1 -0.1 89
2019-03-19 00:00:00 6.4 3 Norte 9 Norte 0 1022.2 0.2 88